CES5349 ZSSS-ZGSZ
Flight info
| Callsign | CES5349 |
|---|---|
| Flight time | 1h 56m |
| Altitude | 32100 |
| Route | NXD61D NXD W131 AKDIM A470 DUBGO W134 ELNEX A599 PLT W19 ATKAV W20 SALIV R473 NOLON W90 POU W7 SAREX SAREX4 |
| Aircraft | B738/M-SDE2E3FGHIRWXY/LB1 |
Departure
| Time | 2026-05-05 10:01 |
|---|---|
| Airport | Shanghai Hongqiao International Airport (ZSSS) |
Arrival
| Time | 2026-05-05 11:57 |
|---|---|
| Airport | Shenzhen Bao'an International Airport (ZGSZ) |
| Time | Latitude | Longitude | Altitude | Speed | Heading |
|---|---|---|---|---|---|
| 2026-05-05 09:37 | 31.19835 | 121.32850 | 18 ft | 0 kts | 287° |
| 2026-05-05 09:49 | 31.19829 | 121.32873 | 18 ft | 4 kts | 288° |
| 2026-05-05 09:49 | 31.19820 | 121.32903 | 18 ft | 4 kts | 289° |
| 2026-05-05 09:49 | 31.19814 | 121.32926 | 18 ft | 4 kts | 278° |
| 2026-05-05 09:49 | 31.19816 | 121.32954 | 18 ft | 4 kts | 229° |
| 2026-05-05 09:50 | 31.19837 | 121.32969 | 18 ft | 4 kts | 187° |
| 2026-05-05 09:50 | 31.19850 | 121.32970 | 18 ft | 0 kts | 178° |
| 2026-05-05 09:53 | 31.19849 | 121.32970 | 18 ft | 1 kts | 178° |
| 2026-05-05 09:54 | 31.19820 | 121.32971 | 19 ft | 10 kts | 178° |
| 2026-05-05 09:54 | 31.19732 | 121.33005 | 19 ft | 10 kts | 106° |
| 2026-05-05 09:54 | 31.19793 | 121.33057 | 19 ft | 17 kts | 357° |
| 2026-05-05 09:54 | 31.19949 | 121.33048 | 19 ft | 28 kts | 357° |
| 2026-05-05 09:55 | 31.20180 | 121.33036 | 18 ft | 38 kts | 357° |
| 2026-05-05 09:55 | 31.20475 | 121.33021 | 18 ft | 43 kts | 357° |
| 2026-05-05 09:55 | 31.20687 | 121.33008 | 19 ft | 34 kts | 357° |
| 2026-05-05 09:55 | 31.20941 | 121.32994 | 18 ft | 34 kts | 357° |
| 2026-05-05 09:56 | 31.21177 | 121.32982 | 18 ft | 33 kts | 357° |
| 2026-05-05 09:56 | 31.21286 | 121.32918 | 18 ft | 12 kts | 286° |
| 2026-05-05 09:56 | 31.21340 | 121.32887 | 18 ft | 12 kts | 353° |
| 2026-05-05 09:56 | 31.21454 | 121.32874 | 18 ft | 20 kts | 354° |
| 2026-05-05 09:57 | 31.21618 | 121.32855 | 18 ft | 27 kts | 354° |
| 2026-05-05 09:57 | 31.21798 | 121.32911 | 19 ft | 31 kts | 66° |
| 2026-05-05 09:57 | 31.21853 | 121.33174 | 18 ft | 36 kts | 78° |
| 2026-05-05 09:57 | 31.21820 | 121.33327 | 20 ft | 19 kts | 169° |
| 2026-05-05 09:58 | 31.21665 | 121.33338 | 20 ft | 25 kts | 177° |
| 2026-05-05 09:58 | 31.21471 | 121.33348 | 18 ft | 30 kts | 178° |
| 2026-05-05 09:58 | 31.21311 | 121.33370 | 19 ft | 20 kts | 135° |
| 2026-05-05 09:58 | 31.21302 | 121.33428 | 18 ft | 2 kts | 86° |
| 2026-05-05 09:59 | 31.21304 | 121.33449 | 18 ft | 3 kts | 86° |
| 2026-05-05 09:59 | 31.21304 | 121.33473 | 18 ft | 4 kts | 89° |
| 2026-05-05 09:59 | 31.21305 | 121.33515 | 19 ft | 8 kts | 89° |
| 2026-05-05 09:59 | 31.21240 | 121.33550 | 19 ft | 15 kts | 178° |
| 2026-05-05 10:00 | 31.21091 | 121.33559 | 18 ft | 34 kts | 177° |
| 2026-05-05 10:00 | 31.20609 | 121.33586 | 17 ft | 103 kts | 177° |
| 2026-05-05 10:00 | 31.19689 | 121.33637 | 23 ft | 159 kts | 176° |
| 2026-05-05 10:00 | 31.18524 | 121.33696 | 514 ft | 168 kts | 177° |
| 2026-05-05 10:01 | 31.17350 | 121.33737 | 1301 ft | 165 kts | 178° |
| 2026-05-05 10:01 | 31.16207 | 121.33771 | 2084 ft | 166 kts | 178° |
| 2026-05-05 10:01 | 31.15039 | 121.33746 | 2786 ft | 170 kts | 182° |
| 2026-05-05 10:01 | 31.13791 | 121.33749 | 2850 ft | 178 kts | 178° |
| 2026-05-05 10:02 | 31.12602 | 121.33785 | 3064 ft | 158 kts | 178° |
| 2026-05-05 10:02 | 31.11488 | 121.33815 | 3610 ft | 166 kts | 179° |
| 2026-05-05 10:02 | 31.10289 | 121.33840 | 4148 ft | 178 kts | 179° |
| 2026-05-05 10:02 | 31.09001 | 121.33857 | 4687 ft | 191 kts | 179° |
| 2026-05-05 10:03 | 31.07610 | 121.33797 | 4987 ft | 213 kts | 191° |
| 2026-05-05 10:03 | 31.06189 | 121.33090 | 5176 ft | 233 kts | 212° |
| 2026-05-05 10:03 | 31.04978 | 121.31814 | 5455 ft | 247 kts | 233° |
| 2026-05-05 10:03 | 31.04249 | 121.29984 | 5940 ft | 252 kts | 256° |
| 2026-05-05 10:04 | 31.04226 | 121.27944 | 6446 ft | 256 kts | 280° |
| 2026-05-05 10:04 | 31.04600 | 121.25909 | 6919 ft | 260 kts | 281° |
| 2026-05-05 10:04 | 31.04970 | 121.23837 | 7485 ft | 261 kts | 281° |
| 2026-05-05 10:04 | 31.05350 | 121.21755 | 8109 ft | 265 kts | 282° |
| 2026-05-05 10:05 | 31.05739 | 121.19646 | 8865 ft | 266 kts | 282° |
| 2026-05-05 10:05 | 31.06124 | 121.17537 | 9634 ft | 268 kts | 282° |
| 2026-05-05 10:05 | 31.06383 | 121.16126 | 10124 ft | 269 kts | 282° |
| 2026-05-05 10:05 | 31.06772 | 121.13989 | 10870 ft | 271 kts | 282° |
| 2026-05-05 10:06 | 31.06782 | 121.11101 | 11653 ft | 268 kts | 253° |
| 2026-05-05 10:06 | 31.06402 | 121.09714 | 11843 ft | 275 kts | 253° |
| 2026-05-05 10:06 | 31.05837 | 121.07556 | 11815 ft | 279 kts | 254° |
| 2026-05-05 10:06 | 31.05286 | 121.05391 | 11815 ft | 277 kts | 254° |
| 2026-05-05 10:07 | 31.04748 | 121.03251 | 11824 ft | 274 kts | 254° |
| 2026-05-05 10:07 | 31.04215 | 121.01123 | 11822 ft | 274 kts | 254° |
| 2026-05-05 10:07 | 31.03683 | 120.98990 | 11820 ft | 275 kts | 254° |
| 2026-05-05 10:07 | 31.03151 | 120.96851 | 11835 ft | 275 kts | 254° |
| 2026-05-05 10:08 | 31.02622 | 120.94717 | 11833 ft | 275 kts | 254° |
| 2026-05-05 10:08 | 31.02089 | 120.92575 | 11822 ft | 275 kts | 254° |
| 2026-05-05 10:08 | 31.01543 | 120.90373 | 11851 ft | 295 kts | 254° |
| 2026-05-05 10:08 | 31.00945 | 120.87956 | 11844 ft | 325 kts | 254° |
| 2026-05-05 10:09 | 31.00290 | 120.85320 | 11833 ft | 352 kts | 254° |
| 2026-05-05 10:09 | 30.99586 | 120.82489 | 11831 ft | 375 kts | 254° |
| 2026-05-05 10:09 | 30.98840 | 120.79489 | 11829 ft | 394 kts | 254° |
| 2026-05-05 10:09 | 30.98072 | 120.76407 | 11812 ft | 397 kts | 254° |
| 2026-05-05 10:10 | 30.97301 | 120.73315 | 11799 ft | 398 kts | 254° |
| 2026-05-05 10:10 | 30.96527 | 120.70219 | 11804 ft | 398 kts | 254° |
| 2026-05-05 10:10 | 30.95753 | 120.67119 | 11798 ft | 398 kts | 254° |
| 2026-05-05 10:10 | 30.94980 | 120.64025 | 11797 ft | 399 kts | 254° |
| 2026-05-05 10:11 | 30.94204 | 120.60924 | 11803 ft | 398 kts | 254° |
| 2026-05-05 10:11 | 30.93429 | 120.57832 | 11801 ft | 398 kts | 254° |
| 2026-05-05 10:11 | 30.92650 | 120.54731 | 11820 ft | 401 kts | 254° |
| 2026-05-05 10:11 | 30.91867 | 120.51612 | 12430 ft | 402 kts | 254° |
| 2026-05-05 10:12 | 30.91081 | 120.48485 | 13037 ft | 403 kts | 254° |
| 2026-05-05 10:12 | 30.90271 | 120.45350 | 13608 ft | 406 kts | 251° |
| 2026-05-05 10:12 | 30.88972 | 120.42477 | 14112 ft | 411 kts | 231° |
| 2026-05-05 10:12 | 30.86768 | 120.40369 | 14722 ft | 414 kts | 210° |
| 2026-05-05 10:13 | 30.84230 | 120.38684 | 15345 ft | 416 kts | 213° |
| 2026-05-05 10:13 | 30.81864 | 120.36801 | 15847 ft | 419 kts | 217° |
| 2026-05-05 10:13 | 30.79502 | 120.34788 | 16368 ft | 422 kts | 217° |
| 2026-05-05 10:13 | 30.77126 | 120.32756 | 16895 ft | 425 kts | 217° |
| 2026-05-05 10:14 | 30.74731 | 120.30730 | 17431 ft | 427 kts | 217° |
| 2026-05-05 10:14 | 30.72311 | 120.28708 | 17908 ft | 430 kts | 217° |
| 2026-05-05 10:14 | 30.69867 | 120.26686 | 18368 ft | 432 kts | 216° |
| 2026-05-05 10:14 | 30.67403 | 120.24662 | 18832 ft | 435 kts | 216° |
| 2026-05-05 10:15 | 30.64921 | 120.22628 | 19276 ft | 438 kts | 216° |
| 2026-05-05 10:15 | 30.62425 | 120.20586 | 19715 ft | 440 kts | 216° |
| 2026-05-05 10:15 | 30.59915 | 120.18532 | 20138 ft | 443 kts | 216° |
| 2026-05-05 10:15 | 30.57391 | 120.16467 | 20564 ft | 445 kts | 216° |
| 2026-05-05 10:16 | 30.54855 | 120.14393 | 20962 ft | 447 kts | 216° |
| 2026-05-05 10:16 | 30.52308 | 120.12310 | 21355 ft | 449 kts | 216° |
| 2026-05-05 10:16 | 30.49748 | 120.10218 | 21720 ft | 452 kts | 216° |
| 2026-05-05 10:16 | 30.47173 | 120.08116 | 22083 ft | 454 kts | 216° |
| 2026-05-05 10:17 | 30.44586 | 120.06006 | 22435 ft | 456 kts | 216° |
| 2026-05-05 10:17 | 30.41954 | 120.03948 | 22769 ft | 458 kts | 213° |
| 2026-05-05 10:17 | 30.39200 | 120.02063 | 23091 ft | 460 kts | 211° |
| 2026-05-05 10:17 | 30.36400 | 120.00252 | 23407 ft | 462 kts | 210° |
| 2026-05-05 10:18 | 30.33579 | 119.98445 | 23697 ft | 464 kts | 210° |
| 2026-05-05 10:18 | 30.30750 | 119.96618 | 23948 ft | 467 kts | 211° |
| 2026-05-05 10:18 | 30.27915 | 119.94766 | 24223 ft | 469 kts | 211° |
| 2026-05-05 10:18 | 30.25081 | 119.92899 | 24526 ft | 470 kts | 211° |
| 2026-05-05 10:19 | 30.22240 | 119.91017 | 24816 ft | 471 kts | 211° |
| 2026-05-05 10:19 | 30.19396 | 119.89131 | 25080 ft | 473 kts | 211° |
| 2026-05-05 10:19 | 30.16538 | 119.87235 | 25372 ft | 473 kts | 211° |
| 2026-05-05 10:19 | 30.13684 | 119.85343 | 25673 ft | 473 kts | 211° |
| 2026-05-05 10:20 | 30.10821 | 119.83448 | 25888 ft | 475 kts | 211° |
| 2026-05-05 10:20 | 30.07953 | 119.81552 | 26085 ft | 476 kts | 211° |
| 2026-05-05 10:20 | 30.05078 | 119.79653 | 26305 ft | 476 kts | 211° |
| 2026-05-05 10:20 | 30.02215 | 119.77746 | 26587 ft | 474 kts | 211° |
| 2026-05-05 10:21 | 29.99371 | 119.75833 | 26890 ft | 472 kts | 212° |
| 2026-05-05 10:21 | 29.96536 | 119.73922 | 27171 ft | 471 kts | 212° |
| 2026-05-05 10:21 | 29.93715 | 119.72020 | 27452 ft | 469 kts | 212° |
| 2026-05-05 10:21 | 29.90896 | 119.70122 | 27710 ft | 469 kts | 212° |
| 2026-05-05 10:22 | 29.88084 | 119.68233 | 27980 ft | 468 kts | 212° |
| 2026-05-05 10:22 | 29.85316 | 119.66366 | 28270 ft | 466 kts | 213° |
| 2026-05-05 10:22 | 29.82597 | 119.64357 | 28554 ft | 464 kts | 215° |
| 2026-05-05 10:22 | 29.79939 | 119.62255 | 28816 ft | 463 kts | 216° |
| 2026-05-05 10:23 | 29.77307 | 119.60133 | 29118 ft | 461 kts | 216° |
| 2026-05-05 10:23 | 29.74676 | 119.58022 | 29418 ft | 460 kts | 216° |
| 2026-05-05 10:23 | 29.72045 | 119.55933 | 29706 ft | 459 kts | 216° |
| 2026-05-05 10:23 | 29.69417 | 119.53867 | 30025 ft | 457 kts | 216° |
| 2026-05-05 10:24 | 29.66791 | 119.51812 | 30312 ft | 456 kts | 216° |
| 2026-05-05 10:24 | 29.64186 | 119.49742 | 30583 ft | 455 kts | 218° |
| 2026-05-05 10:24 | 29.61781 | 119.47390 | 30787 ft | 454 kts | 227° |
| 2026-05-05 10:24 | 29.59725 | 119.44653 | 31090 ft | 451 kts | 231° |
| 2026-05-05 10:25 | 29.57691 | 119.41909 | 31300 ft | 452 kts | 229° |
| 2026-05-05 10:25 | 29.55595 | 119.39217 | 31559 ft | 451 kts | 229° |
| 2026-05-05 10:25 | 29.53492 | 119.36556 | 31854 ft | 450 kts | 229° |
| 2026-05-05 10:25 | 29.51386 | 119.33899 | 32053 ft | 449 kts | 229° |
| 2026-05-05 10:26 | 29.47172 | 119.28566 | 32039 ft | 451 kts | 229° |
| 2026-05-05 10:26 | 29.42989 | 119.23268 | 32046 ft | 449 kts | 229° |
| 2026-05-05 10:27 | 29.38790 | 119.17952 | 32052 ft | 447 kts | 229° |
| 2026-05-05 10:27 | 29.34606 | 119.12665 | 32051 ft | 448 kts | 229° |
| 2026-05-05 10:28 | 29.30425 | 119.07372 | 32058 ft | 448 kts | 229° |
| 2026-05-05 10:28 | 29.26242 | 119.02078 | 32057 ft | 449 kts | 229° |
| 2026-05-05 10:29 | 29.22041 | 118.96785 | 32054 ft | 449 kts | 229° |
| 2026-05-05 10:29 | 29.17937 | 118.91465 | 32051 ft | 450 kts | 229° |
| 2026-05-05 10:30 | 29.13666 | 118.86164 | 32056 ft | 450 kts | 228° |
| 2026-05-05 10:30 | 29.09439 | 118.80955 | 32053 ft | 450 kts | 229° |
| 2026-05-05 10:31 | 29.05213 | 118.75695 | 32049 ft | 449 kts | 229° |
| 2026-05-05 10:31 | 29.00996 | 118.70418 | 32054 ft | 450 kts | 229° |
| 2026-05-05 10:32 | 28.96774 | 118.65145 | 32059 ft | 450 kts | 229° |
| 2026-05-05 10:32 | 28.92547 | 118.59877 | 32062 ft | 450 kts | 229° |
| 2026-05-05 10:33 | 28.88313 | 118.54606 | 32065 ft | 450 kts | 229° |
| 2026-05-05 10:33 | 28.84079 | 118.49340 | 32046 ft | 451 kts | 229° |
| 2026-05-05 10:34 | 28.79836 | 118.44076 | 32059 ft | 451 kts | 229° |
| 2026-05-05 10:34 | 28.75598 | 118.38816 | 32057 ft | 450 kts | 229° |
| 2026-05-05 10:35 | 28.71361 | 118.33572 | 32071 ft | 449 kts | 229° |
| 2026-05-05 10:35 | 28.67125 | 118.28329 | 32079 ft | 450 kts | 229° |
| 2026-05-05 10:36 | 28.62893 | 118.23096 | 32076 ft | 449 kts | 229° |
| 2026-05-05 10:36 | 28.58656 | 118.17865 | 32072 ft | 449 kts | 229° |
| 2026-05-05 10:37 | 28.54425 | 118.12649 | 32071 ft | 448 kts | 229° |
| 2026-05-05 10:37 | 28.50193 | 118.07441 | 32072 ft | 448 kts | 229° |
| 2026-05-05 10:38 | 28.45963 | 118.02238 | 32072 ft | 448 kts | 229° |
| 2026-05-05 10:38 | 28.41734 | 117.97043 | 32054 ft | 448 kts | 229° |
| 2026-05-05 10:39 | 28.37436 | 117.91915 | 32059 ft | 448 kts | 227° |
| 2026-05-05 10:39 | 28.33094 | 117.86828 | 32053 ft | 449 kts | 227° |
| 2026-05-05 10:40 | 28.28758 | 117.81736 | 32045 ft | 449 kts | 227° |
| 2026-05-05 10:40 | 28.24422 | 117.76633 | 32052 ft | 449 kts | 228° |
| 2026-05-05 10:41 | 28.20086 | 117.71538 | 32063 ft | 449 kts | 227° |
| 2026-05-05 10:41 | 28.15778 | 117.66479 | 32072 ft | 449 kts | 228° |
| 2026-05-05 10:42 | 28.09264 | 117.58840 | 32072 ft | 450 kts | 228° |
| 2026-05-05 10:43 | 28.04914 | 117.53749 | 32076 ft | 450 kts | 227° |
| 2026-05-05 10:43 | 28.00560 | 117.48653 | 32072 ft | 450 kts | 227° |
| 2026-05-05 10:44 | 27.96200 | 117.43563 | 32053 ft | 450 kts | 228° |
| 2026-05-05 10:44 | 27.91854 | 117.38485 | 32068 ft | 448 kts | 228° |
| 2026-05-05 10:45 | 27.87510 | 117.33422 | 32095 ft | 448 kts | 228° |
| 2026-05-05 10:45 | 27.83161 | 117.28364 | 32092 ft | 448 kts | 228° |
| 2026-05-05 10:46 | 27.78809 | 117.23286 | 32070 ft | 450 kts | 227° |
| 2026-05-05 10:46 | 27.74449 | 117.18218 | 32127 ft | 449 kts | 227° |
| 2026-05-05 10:46 | 27.72248 | 117.15696 | 32022 ft | 453 kts | 227° |
| 2026-05-05 10:47 | 27.70055 | 117.13146 | 32099 ft | 452 kts | 228° |
| 2026-05-05 10:47 | 27.65706 | 117.08081 | 32082 ft | 452 kts | 228° |
| 2026-05-05 10:48 | 27.61325 | 117.02999 | 32082 ft | 452 kts | 228° |
| 2026-05-05 10:48 | 27.56940 | 116.97922 | 32090 ft | 452 kts | 228° |
| 2026-05-05 10:49 | 27.52544 | 116.92853 | 32078 ft | 452 kts | 228° |
| 2026-05-05 10:49 | 27.48170 | 116.87757 | 32080 ft | 452 kts | 228° |
| 2026-05-05 10:50 | 27.43811 | 116.82643 | 32087 ft | 453 kts | 228° |
| 2026-05-05 10:50 | 27.39441 | 116.77528 | 32069 ft | 454 kts | 228° |
| 2026-05-05 10:51 | 27.35065 | 116.72416 | 32063 ft | 454 kts | 228° |
| 2026-05-05 10:51 | 27.30680 | 116.67309 | 32061 ft | 454 kts | 228° |
| 2026-05-05 10:52 | 27.26291 | 116.62191 | 32051 ft | 454 kts | 228° |
| 2026-05-05 10:52 | 27.21901 | 116.57082 | 32043 ft | 454 kts | 228° |
| 2026-05-05 10:53 | 27.18277 | 116.52809 | 32044 ft | 454 kts | 229° |
| 2026-05-05 10:53 | 27.13276 | 116.46720 | 32034 ft | 454 kts | 230° |
| 2026-05-05 10:54 | 27.08997 | 116.41513 | 32038 ft | 454 kts | 229° |
| 2026-05-05 10:54 | 27.05432 | 116.37200 | 32032 ft | 453 kts | 229° |
| 2026-05-05 10:55 | 27.01139 | 116.32018 | 32035 ft | 453 kts | 229° |
| 2026-05-05 10:55 | 26.96847 | 116.26840 | 32040 ft | 453 kts | 229° |
| 2026-05-05 10:56 | 26.92552 | 116.21667 | 32038 ft | 453 kts | 229° |
| 2026-05-05 10:56 | 26.88276 | 116.16488 | 32011 ft | 452 kts | 230° |
| 2026-05-05 10:57 | 26.84023 | 116.11302 | 32041 ft | 452 kts | 230° |
| 2026-05-05 10:57 | 26.79763 | 116.06117 | 32030 ft | 452 kts | 230° |
| 2026-05-05 10:58 | 26.75499 | 116.00941 | 32036 ft | 452 kts | 230° |
| 2026-05-05 10:58 | 26.71234 | 115.95769 | 32032 ft | 452 kts | 230° |
| 2026-05-05 10:59 | 26.66961 | 115.90596 | 32037 ft | 453 kts | 230° |
| 2026-05-05 10:59 | 26.62678 | 115.85413 | 32038 ft | 454 kts | 230° |
| 2026-05-05 11:00 | 26.58393 | 115.80233 | 32036 ft | 454 kts | 230° |
| 2026-05-05 11:00 | 26.54108 | 115.75059 | 32038 ft | 454 kts | 230° |
| 2026-05-05 11:01 | 26.49847 | 115.69924 | 32033 ft | 454 kts | 230° |
| 2026-05-05 11:01 | 26.45552 | 115.64768 | 32035 ft | 453 kts | 230° |
| 2026-05-05 11:02 | 26.41264 | 115.59605 | 32024 ft | 454 kts | 230° |
| 2026-05-05 11:02 | 26.36973 | 115.54449 | 32049 ft | 454 kts | 230° |
| 2026-05-05 11:03 | 26.32676 | 115.49293 | 32030 ft | 454 kts | 230° |
| 2026-05-05 11:03 | 26.28378 | 115.44139 | 32029 ft | 454 kts | 230° |
| 2026-05-05 11:04 | 26.24084 | 115.38995 | 32030 ft | 453 kts | 230° |
| 2026-05-05 11:04 | 26.19783 | 115.33851 | 32037 ft | 453 kts | 230° |
| 2026-05-05 11:05 | 26.15480 | 115.28711 | 32034 ft | 454 kts | 230° |
| 2026-05-05 11:05 | 26.11172 | 115.23571 | 32036 ft | 454 kts | 230° |
| 2026-05-05 11:06 | 26.06858 | 115.18433 | 32034 ft | 454 kts | 230° |
| 2026-05-05 11:06 | 26.02547 | 115.13296 | 32025 ft | 454 kts | 230° |
| 2026-05-05 11:07 | 25.98230 | 115.08167 | 32035 ft | 454 kts | 230° |
| 2026-05-05 11:07 | 25.93913 | 115.03042 | 32054 ft | 454 kts | 230° |
| 2026-05-05 11:08 | 25.89593 | 114.97917 | 32053 ft | 455 kts | 230° |
| 2026-05-05 11:08 | 25.85271 | 114.92791 | 32033 ft | 455 kts | 230° |
| 2026-05-05 11:09 | 25.80386 | 114.88299 | 32045 ft | 464 kts | 213° |
| 2026-05-05 11:09 | 25.74313 | 114.85735 | 32038 ft | 474 kts | 197° |
| 2026-05-05 11:10 | 25.67854 | 114.84227 | 32034 ft | 475 kts | 197° |
| 2026-05-05 11:10 | 25.61402 | 114.82675 | 32041 ft | 474 kts | 197° |
| 2026-05-05 11:11 | 25.54959 | 114.81083 | 32047 ft | 475 kts | 197° |
| 2026-05-05 11:11 | 25.48552 | 114.79490 | 32044 ft | 475 kts | 197° |
| 2026-05-05 11:12 | 25.42100 | 114.77889 | 32039 ft | 475 kts | 197° |
| 2026-05-05 11:12 | 25.35653 | 114.76295 | 32073 ft | 475 kts | 197° |
| 2026-05-05 11:13 | 25.29208 | 114.74698 | 32070 ft | 475 kts | 197° |
| 2026-05-05 11:13 | 25.22755 | 114.73103 | 32071 ft | 475 kts | 197° |
| 2026-05-05 11:14 | 25.16294 | 114.71508 | 32075 ft | 476 kts | 197° |
| 2026-05-05 11:14 | 25.09823 | 114.69922 | 32074 ft | 476 kts | 197° |
| 2026-05-05 11:15 | 25.03363 | 114.68325 | 32064 ft | 476 kts | 197° |
| 2026-05-05 11:15 | 24.96908 | 114.66736 | 32074 ft | 476 kts | 197° |
| 2026-05-05 11:16 | 24.90446 | 114.65148 | 32070 ft | 476 kts | 197° |
| 2026-05-05 11:16 | 24.84003 | 114.63568 | 32074 ft | 477 kts | 197° |
| 2026-05-05 11:17 | 24.77514 | 114.61997 | 32076 ft | 477 kts | 197° |
| 2026-05-05 11:17 | 24.71060 | 114.60347 | 32072 ft | 473 kts | 202° |
| 2026-05-05 11:18 | 24.65219 | 114.57228 | 32094 ft | 465 kts | 215° |
| 2026-05-05 11:18 | 24.59651 | 114.53592 | 32080 ft | 466 kts | 214° |
| 2026-05-05 11:19 | 24.54029 | 114.50022 | 32077 ft | 467 kts | 213° |
| 2026-05-05 11:19 | 24.48393 | 114.46467 | 32090 ft | 468 kts | 214° |
| 2026-05-05 11:20 | 24.42944 | 114.42614 | 32112 ft | 463 kts | 226° |
| 2026-05-05 11:20 | 24.40822 | 114.39988 | 32091 ft | 458 kts | 237° |
| 2026-05-05 11:20 | 24.39164 | 114.37024 | 32054 ft | 455 kts | 246° |
| 2026-05-05 11:21 | 24.36899 | 114.30634 | 32074 ft | 453 kts | 251° |
| 2026-05-05 11:21 | 24.34574 | 114.24211 | 32070 ft | 453 kts | 250° |
| 2026-05-05 11:22 | 24.32216 | 114.17803 | 32066 ft | 453 kts | 250° |
| 2026-05-05 11:22 | 24.29847 | 114.11413 | 32074 ft | 453 kts | 248° |
| 2026-05-05 11:22 | 24.28277 | 114.08409 | 32071 ft | 457 kts | 236° |
| 2026-05-05 11:23 | 24.26196 | 114.05764 | 32080 ft | 460 kts | 228° |
| 2026-05-05 11:23 | 24.21008 | 114.01576 | 32075 ft | 468 kts | 214° |
| 2026-05-05 11:24 | 24.15462 | 113.97848 | 32061 ft | 467 kts | 216° |
| 2026-05-05 11:24 | 24.10025 | 113.93963 | 32058 ft | 465 kts | 221° |
| 2026-05-05 11:25 | 24.05225 | 113.89294 | 32062 ft | 461 kts | 226° |
| 2026-05-05 11:25 | 24.00506 | 113.84527 | 32060 ft | 462 kts | 226° |
| 2026-05-05 11:26 | 23.95739 | 113.79790 | 31705 ft | 467 kts | 225° |
| 2026-05-05 11:26 | 23.93327 | 113.77417 | 31341 ft | 465 kts | 225° |
| 2026-05-05 11:26 | 23.90922 | 113.75059 | 30970 ft | 463 kts | 225° |
| 2026-05-05 11:26 | 23.88521 | 113.72709 | 30592 ft | 464 kts | 225° |
| 2026-05-05 11:27 | 23.86115 | 113.70351 | 30206 ft | 464 kts | 225° |
| 2026-05-05 11:27 | 23.83712 | 113.67996 | 29862 ft | 465 kts | 225° |
| 2026-05-05 11:27 | 23.81303 | 113.65637 | 29490 ft | 465 kts | 225° |
| 2026-05-05 11:27 | 23.78890 | 113.63278 | 29112 ft | 466 kts | 225° |
| 2026-05-05 11:28 | 23.76473 | 113.60916 | 28741 ft | 468 kts | 225° |
| 2026-05-05 11:28 | 23.74045 | 113.58542 | 28366 ft | 469 kts | 225° |
| 2026-05-05 11:28 | 23.71614 | 113.56166 | 27995 ft | 470 kts | 225° |
| 2026-05-05 11:28 | 23.69172 | 113.53782 | 27622 ft | 472 kts | 224° |
| 2026-05-05 11:29 | 23.66722 | 113.51390 | 27252 ft | 474 kts | 224° |
| 2026-05-05 11:29 | 23.64263 | 113.48988 | 26876 ft | 476 kts | 224° |
| 2026-05-05 11:29 | 23.61787 | 113.46575 | 26505 ft | 477 kts | 224° |
| 2026-05-05 11:29 | 23.59312 | 113.44163 | 26130 ft | 479 kts | 224° |
| 2026-05-05 11:30 | 23.56857 | 113.41771 | 25761 ft | 480 kts | 224° |
| 2026-05-05 11:30 | 23.54239 | 113.39487 | 25361 ft | 485 kts | 216° |
| 2026-05-05 11:30 | 23.51303 | 113.37652 | 24999 ft | 489 kts | 208° |
| 2026-05-05 11:30 | 23.48129 | 113.36303 | 24639 ft | 491 kts | 201° |
| 2026-05-05 11:31 | 23.44883 | 113.35165 | 24267 ft | 489 kts | 201° |
| 2026-05-05 11:31 | 23.41671 | 113.33995 | 23887 ft | 485 kts | 201° |
| 2026-05-05 11:31 | 23.38492 | 113.32804 | 23510 ft | 481 kts | 202° |
| 2026-05-05 11:31 | 23.35343 | 113.31607 | 23134 ft | 477 kts | 202° |
| 2026-05-05 11:32 | 23.32226 | 113.30415 | 22762 ft | 473 kts | 202° |
| 2026-05-05 11:32 | 23.29133 | 113.29232 | 22382 ft | 470 kts | 202° |
| 2026-05-05 11:32 | 23.26058 | 113.28056 | 22012 ft | 467 kts | 202° |
| 2026-05-05 11:32 | 23.23000 | 113.26891 | 21637 ft | 464 kts | 202° |
| 2026-05-05 11:33 | 23.19963 | 113.25737 | 21260 ft | 461 kts | 201° |
| 2026-05-05 11:33 | 23.16941 | 113.24589 | 20886 ft | 459 kts | 201° |
| 2026-05-05 11:33 | 23.13936 | 113.23450 | 20514 ft | 456 kts | 201° |
| 2026-05-05 11:33 | 23.10949 | 113.22320 | 20138 ft | 454 kts | 201° |
| 2026-05-05 11:34 | 23.08406 | 113.21622 | 19795 ft | 456 kts | 189° |
| 2026-05-05 11:34 | 23.05243 | 113.21833 | 19416 ft | 461 kts | 168° |
| 2026-05-05 11:34 | 23.02293 | 113.23191 | 19069 ft | 463 kts | 150° |
| 2026-05-05 11:34 | 22.99737 | 113.25312 | 18695 ft | 463 kts | 137° |
| 2026-05-05 11:35 | 22.97740 | 113.28044 | 18309 ft | 465 kts | 121° |
| 2026-05-05 11:35 | 22.96296 | 113.31169 | 17968 ft | 462 kts | 117° |
| 2026-05-05 11:35 | 22.94872 | 113.34279 | 17583 ft | 459 kts | 118° |
| 2026-05-05 11:35 | 22.93430 | 113.37357 | 17203 ft | 456 kts | 118° |
| 2026-05-05 11:36 | 22.91984 | 113.40403 | 16831 ft | 453 kts | 118° |
| 2026-05-05 11:36 | 22.90536 | 113.43432 | 16451 ft | 451 kts | 118° |
| 2026-05-05 11:36 | 22.89095 | 113.46436 | 16076 ft | 448 kts | 118° |
| 2026-05-05 11:36 | 22.87662 | 113.49422 | 15701 ft | 445 kts | 118° |
| 2026-05-05 11:37 | 22.86239 | 113.52388 | 15334 ft | 442 kts | 118° |
| 2026-05-05 11:37 | 22.84824 | 113.55337 | 14949 ft | 439 kts | 118° |
| 2026-05-05 11:37 | 22.83419 | 113.58268 | 14580 ft | 437 kts | 118° |
| 2026-05-05 11:37 | 22.82022 | 113.61181 | 14201 ft | 434 kts | 118° |
| 2026-05-05 11:38 | 22.80635 | 113.64070 | 13823 ft | 432 kts | 118° |
| 2026-05-05 11:38 | 22.79251 | 113.66948 | 13453 ft | 429 kts | 118° |
| 2026-05-05 11:38 | 22.77876 | 113.69807 | 13078 ft | 426 kts | 118° |
| 2026-05-05 11:38 | 22.76511 | 113.72645 | 12701 ft | 424 kts | 118° |
| 2026-05-05 11:39 | 22.75153 | 113.75469 | 12327 ft | 421 kts | 118° |
| 2026-05-05 11:39 | 22.73805 | 113.78270 | 11952 ft | 418 kts | 118° |
| 2026-05-05 11:39 | 22.72466 | 113.81051 | 11794 ft | 415 kts | 118° |
| 2026-05-05 11:39 | 22.71130 | 113.83825 | 11767 ft | 415 kts | 118° |
| 2026-05-05 11:40 | 22.69794 | 113.86595 | 11769 ft | 415 kts | 118° |
| 2026-05-05 11:40 | 22.68457 | 113.89370 | 11757 ft | 415 kts | 118° |
| 2026-05-05 11:40 | 22.67080 | 113.92108 | 11748 ft | 411 kts | 124° |
| 2026-05-05 11:40 | 22.65189 | 113.94299 | 11757 ft | 390 kts | 148° |
| 2026-05-05 11:41 | 22.62793 | 113.95373 | 11748 ft | 364 kts | 173° |
| 2026-05-05 11:41 | 22.60374 | 113.95222 | 11753 ft | 339 kts | 200° |
| 2026-05-05 11:41 | 22.59005 | 113.94502 | 11754 ft | 324 kts | 217° |
| 2026-05-05 11:41 | 22.57098 | 113.92153 | 11532 ft | 307 kts | 243° |
| 2026-05-05 11:42 | 22.56573 | 113.90731 | 10990 ft | 310 kts | 256° |
| 2026-05-05 11:42 | 22.56463 | 113.88418 | 10596 ft | 299 kts | 277° |
| 2026-05-05 11:42 | 22.57146 | 113.85610 | 10393 ft | 285 kts | 296° |
| 2026-05-05 11:42 | 22.57806 | 113.84408 | 10344 ft | 278 kts | 301° |
| 2026-05-05 11:43 | 22.58763 | 113.82771 | 10245 ft | 280 kts | 301° |
| 2026-05-05 11:43 | 22.59849 | 113.80904 | 10146 ft | 290 kts | 300° |
| 2026-05-05 11:43 | 22.60910 | 113.79068 | 10014 ft | 284 kts | 300° |
| 2026-05-05 11:43 | 22.61950 | 113.77260 | 9702 ft | 283 kts | 300° |
| 2026-05-05 11:44 | 22.62983 | 113.75456 | 9413 ft | 281 kts | 300° |
| 2026-05-05 11:44 | 22.64332 | 113.73091 | 9102 ft | 274 kts | 300° |
| 2026-05-05 11:44 | 22.65298 | 113.71393 | 9029 ft | 257 kts | 300° |
| 2026-05-05 11:44 | 22.65917 | 113.70304 | 8971 ft | 246 kts | 300° |
| 2026-05-05 11:45 | 22.66783 | 113.68778 | 8867 ft | 230 kts | 300° |
| 2026-05-05 11:45 | 22.67587 | 113.67363 | 8764 ft | 213 kts | 300° |
| 2026-05-05 11:45 | 22.68333 | 113.66046 | 8637 ft | 198 kts | 300° |
| 2026-05-05 11:45 | 22.69035 | 113.64807 | 8417 ft | 190 kts | 300° |
| 2026-05-05 11:46 | 22.69724 | 113.63591 | 8091 ft | 189 kts | 300° |
| 2026-05-05 11:46 | 22.70409 | 113.62381 | 7761 ft | 188 kts | 299° |
| 2026-05-05 11:46 | 22.71091 | 113.61177 | 7419 ft | 187 kts | 299° |
| 2026-05-05 11:46 | 22.71771 | 113.59978 | 7100 ft | 187 kts | 300° |
| 2026-05-05 11:47 | 22.72450 | 113.58780 | 6722 ft | 188 kts | 300° |
| 2026-05-05 11:47 | 22.73136 | 113.57615 | 6478 ft | 183 kts | 307° |
| 2026-05-05 11:47 | 22.74231 | 113.56963 | 6303 ft | 181 kts | 358° |
| 2026-05-05 11:47 | 22.75504 | 113.57066 | 6167 ft | 193 kts | 2° |
| 2026-05-05 11:48 | 22.78185 | 113.57152 | 5729 ft | 190 kts | 0° |
| 2026-05-05 11:48 | 22.79489 | 113.57191 | 5521 ft | 185 kts | 0° |
| 2026-05-05 11:48 | 22.80770 | 113.57227 | 5336 ft | 185 kts | 0° |
| 2026-05-05 11:49 | 22.82058 | 113.57267 | 5147 ft | 186 kts | 2° |
| 2026-05-05 11:49 | 22.83287 | 113.57671 | 4905 ft | 188 kts | 41° |
| 2026-05-05 11:49 | 22.83913 | 113.58842 | 4861 ft | 176 kts | 70° |
| 2026-05-05 11:49 | 22.84447 | 113.60071 | 4738 ft | 182 kts | 63° |
| 2026-05-05 11:50 | 22.85036 | 113.61289 | 4665 ft | 184 kts | 63° |
| 2026-05-05 11:50 | 22.85629 | 113.62517 | 4583 ft | 184 kts | 63° |
| 2026-05-05 11:50 | 22.86220 | 113.63744 | 4503 ft | 184 kts | 63° |
| 2026-05-05 11:50 | 22.86810 | 113.64972 | 4423 ft | 184 kts | 63° |
| 2026-05-05 11:51 | 22.87225 | 113.66268 | 4315 ft | 183 kts | 90° |
| 2026-05-05 11:51 | 22.86951 | 113.67579 | 4268 ft | 177 kts | 115° |
| 2026-05-05 11:51 | 22.86239 | 113.68685 | 4085 ft | 182 kts | 137° |
| 2026-05-05 11:51 | 22.85192 | 113.69433 | 3919 ft | 181 kts | 152° |
| 2026-05-05 11:52 | 22.84078 | 113.70047 | 3721 ft | 178 kts | 153° |
| 2026-05-05 11:52 | 22.82983 | 113.70639 | 3525 ft | 175 kts | 153° |
| 2026-05-05 11:52 | 22.81898 | 113.71226 | 3340 ft | 174 kts | 153° |
| 2026-05-05 11:52 | 22.80824 | 113.71811 | 3165 ft | 169 kts | 152° |
| 2026-05-05 11:53 | 22.79794 | 113.72374 | 3039 ft | 165 kts | 152° |
| 2026-05-05 11:53 | 22.78808 | 113.72911 | 3066 ft | 151 kts | 152° |
| 2026-05-05 11:53 | 22.77884 | 113.73409 | 2996 ft | 149 kts | 152° |
| 2026-05-05 11:53 | 22.76968 | 113.73917 | 2743 ft | 149 kts | 152° |
| 2026-05-05 11:54 | 22.76044 | 113.74422 | 2382 ft | 147 kts | 152° |
| 2026-05-05 11:54 | 22.75142 | 113.74923 | 2006 ft | 144 kts | 151° |
| 2026-05-05 11:54 | 22.74259 | 113.75405 | 1689 ft | 141 kts | 153° |
| 2026-05-05 11:54 | 22.73375 | 113.75869 | 1413 ft | 141 kts | 152° |
| 2026-05-05 11:55 | 22.72492 | 113.76349 | 1170 ft | 142 kts | 152° |
| 2026-05-05 11:55 | 22.71610 | 113.76825 | 982 ft | 141 kts | 152° |
| 2026-05-05 11:55 | 22.70743 | 113.77311 | 858 ft | 141 kts | 152° |
| 2026-05-05 11:55 | 22.69865 | 113.77803 | 726 ft | 142 kts | 152° |
| 2026-05-05 11:56 | 22.68989 | 113.78279 | 639 ft | 140 kts | 153° |
| 2026-05-05 11:56 | 22.68105 | 113.78752 | 523 ft | 142 kts | 152° |
| 2026-05-05 11:56 | 22.67231 | 113.79244 | 392 ft | 141 kts | 151° |
| 2026-05-05 11:56 | 22.66357 | 113.79736 | 252 ft | 142 kts | 152° |
| 2026-05-05 11:57 | 22.65478 | 113.80214 | 111 ft | 141 kts | 153° |
| 2026-05-05 11:57 | 22.64625 | 113.80680 | 20 ft | 131 kts | 152° |
| 2026-05-05 11:57 | 22.63908 | 113.81072 | 14 ft | 92 kts | 153° |
| 2026-05-05 11:57 | 22.63474 | 113.81312 | 14 ft | 44 kts | 153° |
| 2026-05-05 11:58 | 22.63296 | 113.81408 | 14 ft | 27 kts | 153° |
| 2026-05-05 11:58 | 22.63119 | 113.81450 | 14 ft | 25 kts | 180° |
| 2026-05-05 11:58 | 22.62959 | 113.81415 | 14 ft | 24 kts | 238° |
| 2026-05-05 11:58 | 22.62922 | 113.81274 | 14 ft | 11 kts | 266° |
| 2026-05-05 11:59 | 22.62916 | 113.81195 | 14 ft | 10 kts | 265° |
| 2026-05-05 11:59 | 22.62914 | 113.81161 | 14 ft | 0 kts | 264° |
| 2026-05-05 12:00 | 22.62914 | 113.81163 | 14 ft | 0 kts | 262° |